Wynona, Oklahoma
Current Conditions -  °F | °C
As of 6:53 PM on Friday 28 Nov 2014 (Local Time) from KBVO Reporting Station
Clear Clear  
Wind Chill: 54°   Ceiling: Unl
Heat Index: 54°   Visibility: 10mi
Dew Point: 39°   Wind: 7mph
Humidity: 57%   Direction: 190°S
Pressure: 29.88"   Gusts: NA
Location:  36.55°N, 96.33°W
Report Text: KBVO 290053Z AUTO 19006KT 10SM CLR 12/04 A2988 RMK AO2 SLP117 T01220039
Loading
Personal Weather Stations






























Interactive Weather Map New forecast layout! Learn more

10-Day Weather Forecast

Advertisements
Track Severe Weather on mobile